Time;durP1;ratioP1;P1;durP2;ratioP2;P2;SDS_P1;SDS_P2;PMS_P1;PMS_P2;Temp;Humidity;BMP_temperature;BMP_pressure;BME280_temperature;BME280_humidity;BME280_pressure;Samples;Min_cycle;Max_cycle;Signal;HPM_P1;HPM_P2
2022/08/23 00:02:07;;;;;;;13.07;11.30;;;;;;;22.19;89.83;94346.13;4915516;29;20459;-82
2022/08/23 00:04:38;;;;;;;15.17;13.57;;;;;;;22.12;90.24;94353.38;4917197;29;20927;-82
2022/08/23 00:07:08;;;;;;;15.47;11.87;;;;;;;22.20;90.75;94345.09;4917362;29;20554;-80
2022/08/23 00:09:35;;;;;;;18.23;13.97;;;;;;;22.04;91.23;94344.78;4917088;29;20464;-80
2022/08/23 00:12:10;;;;;;;18.80;12.37;;;;;;;22.16;92.67;94343.88;4917114;29;20452;-82
2022/08/23 00:14:39;;;;;;;20.00;11.83;;;;;;;22.11;92.62;94350.91;4917496;29;20451;-82
2022/08/23 00:17:07;;;;;;;20.93;13.83;;;;;;;22.22;92.43;94347.53;4917372;29;20481;-82
2022/08/23 00:19:36;;;;;;;14.50;12.90;;;;;;;22.31;91.93;94345.47;4916869;29;20495;-81
2022/08/23 00:22:07;;;;;;;16.27;13.87;;;;;;;22.27;91.72;94346.94;4916713;29;20456;-82
2022/08/23 00:24:34;;;;;;;23.80;15.20;;;;;;;22.12;92.43;94348.03;4915165;29;20503;-81
2022/08/23 00:27:06;;;;;;;17.03;14.60;;;;;;;22.05;93.04;94344.56;4917097;29;20459;-82
2022/08/23 00:29:36;;;;;;;22.07;14.67;;;;;;;22.10;93.50;94344.75;4917584;29;20468;-82
2022/08/23 00:32:06;;;;;;;21.17;14.40;;;;;;;22.00;93.44;94335.53;4917198;29;20459;-82
2022/08/23 00:34:33;;;;;;;17.33;15.10;;;;;;;22.01;94.16;94340.66;4917255;29;20459;-82
2022/08/23 00:37:02;;;;;;;16.37;13.80;;;;;;;22.15;93.86;94331.56;4917612;29;20456;-80
2022/08/23 00:39:28;;;;;;;17.77;13.83;;;;;;;22.30;93.93;94338.47;4917324;29;20500;-80
2022/08/23 00:41:59;;;;;;;25.10;14.27;;;;;;;22.40;92.45;94330.78;4916929;29;20467;-80
2022/08/23 00:50:15;;;;;;;15.03;12.10;;;;;;;22.48;91.51;94336.69;4916962;29;20439;-80
2022/08/23 00:52:50;;;;;;;17.93;12.63;;;;;;;22.50;91.37;94336.47;4917102;29;20459;-80
2022/08/23 00:55:18;;;;;;;16.63;13.13;;;;;;;22.59;92.14;94327.16;4917093;29;20471;-82
2022/08/23 00:57:45;;;;;;;16.97;13.40;;;;;;;22.64;91.22;94339.88;4915089;29;20508;-82
2022/08/23 01:00:13;;;;;;;18.13;11.80;;;;;;;22.59;90.77;94345.06;4916724;29;20975;-82
2022/08/23 01:02:42;;;;;;;13.73;11.47;;;;;;;22.63;89.85;94354.28;4917001;29;20457;-82
2022/08/23 01:05:09;;;;;;;16.30;11.83;;;;;;;22.66;90.16;94346.66;4916732;29;20850;-80
2022/08/23 01:07:46;;;;;;;13.57;11.50;;;;;;;22.63;89.60;94355.09;4914623;29;20464;-80
2022/08/23 01:10:20;;;;;;;17.97;12.80;;;;;;;22.53;89.13;94360.09;4917090;29;20487;-80
2022/08/23 01:12:54;;;;;;;17.07;13.43;;;;;;;22.41;89.84;94361.84;4916594;29;20470;-80
2022/08/23 01:15:26;;;;;;;16.93;11.67;;;;;;;22.01;92.02;94367.38;4916650;29;20463;-80
2022/08/23 01:18:01;;;;;;;18.60;13.00;;;;;;;21.94;93.78;94366.56;4916733;29;20511;-82
2022/08/23 01:20:41;;;;;;;20.37;13.80;;;;;;;21.66;95.54;94356.22;4883844;29;20522;-83
2022/08/23 01:23:21;;;;;;;19.20;14.90;;;;;;;21.75;95.59;94356.81;4916682;29;20465;-82
2022/08/23 01:25:48;;;;;;;15.87;14.13;;;;;;;21.72;96.44;94352.72;4916505;29;20456;-82
2022/08/23 01:28:17;;;;;;;19.00;14.63;;;;;;;21.86;96.58;94359.63;4916707;29;20478;-82
2022/08/23 01:30:45;;;;;;;17.57;14.57;;;;;;;21.79;96.24;94356.19;4916476;29;20515;-82
2022/08/23 01:33:12;;;;;;;23.57;15.90;;;;;;;21.75;96.49;94343.47;4917083;29;20535;-82
2022/08/23 01:35:43;;;;;;;17.83;13.87;;;;;;;21.82;96.45;94341.56;4920251;29;20851;-82
2022/08/23 01:38:11;;;;;;;17.93;14.37;;;;;;;21.89;96.61;94345.03;4920251;29;20476;-80
2022/08/23 01:40:40;;;;;;;19.17;15.57;;;;;;;21.99;96.82;94345.41;4920165;29;20467;-80
2022/08/23 01:43:08;;;;;;;19.03;14.43;;;;;;;21.98;95.22;94354.47;4919832;29;20468;-80
2022/08/23 01:45:36;;;;;;;20.60;15.03;;;;;;;22.01;95.68;94364.72;4919846;29;20463;-80
2022/08/23 01:48:03;;;;;;;19.87;15.10;;;;;;;21.99;95.73;94361.44;4919982;29;20459;-80
2022/08/23 01:50:30;;;;;;;18.30;14.47;;;;;;;22.02;95.08;94352.16;4919948;29;20456;-80
2022/08/23 01:52:57;;;;;;;15.17;13.40;;;;;;;22.01;94.08;94355.88;4919696;29;20447;-80
2022/08/23 01:55:24;;;;;;;19.77;12.60;;;;;;;21.96;93.75;94356.50;4919627;29;20480;-80
2022/08/23 01:57:56;;;;;;;16.60;12.10;;;;;;;21.88;93.02;94346.06;4919489;29;20463;-80
2022/08/23 02:00:26;;;;;;;18.53;12.17;;;;;;;21.93;93.25;94346.22;4919651;29;21017;-80
2022/08/23 02:02:53;;;;;;;18.40;13.70;;;;;;;21.95;92.15;94352.19;4919462;29;21176;-81
2022/08/23 02:05:20;;;;;;;17.93;11.20;;;;;;;22.00;92.10;94352.38;4919925;29;20459;-80
2022/08/23 02:07:47;;;;;;;13.10;11.70;;;;;;;22.01;91.94;94345.19;4919500;29;20455;-80
2022/08/23 02:10:14;;;;;;;14.80;11.37;;;;;;;21.98;91.32;94354.47;4919230;29;20924;-80
2022/08/23 02:12:41;;;;;;;13.07;11.20;;;;;;;21.96;91.12;94354.63;4919582;29;20448;-80
2022/08/23 02:15:10;;;;;;;13.67;11.30;;;;;;;21.92;90.88;94358.78;4919473;29;20447;-80
2022/08/23 02:17:37;;;;;;;17.30;12.63;;;;;;;21.98;91.42;94361.66;4919096;29;20452;-80
2022/08/23 02:20:05;;;;;;;15.80;10.53;;;;;;;22.04;91.30;94363.50;4919298;29;20507;-80
2022/08/23 02:22:33;;;;;;;17.23;11.20;;;;;;;22.16;91.52;94351.91;4919225;29;20487;-82
2022/08/23 02:25:00;;;;;;;14.30;11.60;;;;;;;22.21;90.02;94354.75;4919396;29;21066;-82
2022/08/23 02:27:27;;;;;;;12.50;11.20;;;;;;;22.21;90.35;94356.59;4918966;29;20463;-82
2022/08/23 02:29:54;;;;;;;18.00;12.53;;;;;;;22.08;90.00;94352.16;4918986;29;20463;-82
2022/08/23 02:32:22;;;;;;;14.60;10.80;;;;;;;22.06;90.33;94359.56;4919077;29;20452;-81
2022/08/23 02:34:49;;;;;;;18.97;11.37;;;;;;;21.95;90.49;94370.88;4919133;29;20448;-82
2022/08/23 02:37:16;;;;;;;18.50;12.27;;;;;;;21.90;91.07;94373.38;4918701;29;20952;-81
2022/08/23 02:39:43;;;;;;;15.10;12.43;;;;;;;21.89;91.51;94369.88;4918593;29;20507;-83
2022/08/23 02:42:10;;;;;;;19.53;12.13;;;;;;;21.92;91.21;94366.78;4918652;29;20504;-83
2022/08/23 02:44:38;;;;;;;11.73;10.30;;;;;;;21.91;89.82;94369.66;4918403;29;20464;-82
2022/08/23 02:47:07;;;;;;;11.93;10.70;;;;;;;21.96;89.67;94361.84;4918114;29;20460;-81
2022/08/23 02:49:36;;;;;;;11.13;10.00;;;;;;;21.87;89.67;94371.94;4918623;29;20482;-82
2022/08/23 02:52:05;;;;;;;12.07;10.53;;;;;;;21.82;89.52;94358.41;4919690;29;20459;-82
2022/08/23 02:54:31;;;;;;;11.57;10.00;;;;;;;21.84;89.19;94360.88;4918356;29;20943;-82
2022/08/23 02:56:58;;;;;;;13.10;11.13;;;;;;;21.76;89.37;94361.13;4918811;29;20515;-82
2022/08/23 02:59:25;;;;;;;11.40;10.20;;;;;;;21.72;89.41;94354.56;4918160;29;20551;-81
2022/08/23 03:01:52;;;;;;;14.23;9.93;;;;;;;21.70;89.99;94352.09;4918255;29;20477;-82
2022/08/23 03:04:19;;;;;;;13.73;10.37;;;;;;;21.61;90.45;94350.69;4918447;29;20447;-81
2022/08/23 03:06:47;;;;;;;11.00;9.03;;;;;;;21.64;90.10;94340.41;4918109;29;20452;-80
2022/08/23 03:09:14;;;;;;;14.40;9.80;;;;;;;21.64;91.00;94340.41;4918641;29;20468;-80
2022/08/23 03:11:44;;;;;;;11.30;10.10;;;;;;;21.75;90.07;94346.13;4918277;29;20444;-80
2022/08/23 03:14:11;;;;;;;10.70;9.57;;;;;;;21.87;90.42;94336.41;4918175;29;20547;-80
2022/08/23 03:16:39;;;;;;;9.73;8.73;;;;;;;22.02;89.67;94326.28;4918189;29;20463;-80
2022/08/23 03:19:06;;;;;;;10.90;9.70;;;;;;;22.12;88.77;94326.66;4917998;29;20523;-80
2022/08/23 03:21:32;;;;;;;9.60;8.60;;;;;;;22.21;89.81;94333.38;4918409;29;20448;-80
2022/08/23 03:24:01;;;;;;;10.30;9.20;;;;;;;22.24;88.76;94338.28;4918182;29;20456;-80
2022/08/23 03:26:28;;;;;;;16.87;9.83;;;;;;;22.32;88.83;94336.41;4917877;29;20451;-79
2022/08/23 03:28:55;;;;;;;15.70;8.40;;;;;;;22.41;88.46;94338.59;4917886;29;20448;-81
2022/08/23 03:31:24;;;;;;;16.33;7.40;;;;;;;22.44;87.18;94334.66;4918040;29;20451;-80
2022/08/23 03:33:51;;;;;;;9.50;7.83;;;;;;;22.43;87.75;94346.41;4900165;29;20456;-80
2022/08/23 03:36:20;;;;;;;8.83;7.93;;;;;;;22.38;86.30;94346.22;4918174;29;20919;-82
2022/08/23 03:38:47;;;;;;;7.50;6.80;;;;;;;22.00;86.35;94343.56;4917605;29;20935;-86
2022/08/23 03:41:16;;;;;;;11.17;8.87;;;;;;;21.93;87.75;94346.22;4916298;29;20495;-87
2022/08/23 03:43:43;;;;;;;10.63;9.53;;;;;;;21.75;88.71;94351.47;4918360;29;20891;-83
2022/08/23 03:46:21;;;;;;;8.63;7.53;;;;;;;21.58;88.60;94362.59;4917776;29;20452;-83
2022/08/23 03:48:49;;;;;;;9.33;6.13;;;;;;;21.32;89.03;94368.00;4917419;29;20464;-81
2022/08/23 03:51:16;;;;;;;10.20;7.53;;;;;;;21.26;89.75;94369.69;4918152;29;20460;-81
2022/08/23 03:53:45;;;;;;;7.77;7.03;;;;;;;21.19;90.52;94376.03;4917555;29;20456;-83
2022/08/23 03:56:23;;;;;;;16.50;8.50;;;;;;;21.20;91.01;94377.66;4917028;29;20480;-81
2022/08/23 03:58:50;;;;;;;9.90;8.90;;;;;;;21.22;91.37;94384.44;4917112;29;20534;-81
2022/08/23 04:01:17;;;;;;;14.07;9.17;;;;;;;21.26;92.08;94382.19;4915714;29;20495;-82
2022/08/23 04:03:44;;;;;;;16.27;9.47;;;;;;;21.21;92.82;94392.66;4915714;29;20435;-82
2022/08/23 04:06:11;;;;;;;10.53;9.43;;;;;;;21.18;93.20;94393.06;4917595;29;20455;-81
2022/08/23 04:08:38;;;;;;;14.73;9.13;;;;;;;21.07;94.05;94391.00;4917552;29;20569;-81
2022/08/23 04:11:06;;;;;;;14.93;10.27;;;;;;;20.91;94.98;94387.75;4917488;29;20448;-81
2022/08/23 04:13:35;;;;;;;11.40;9.93;;;;;;;20.84;96.25;94386.94;4917621;29;20819;-81
2022/08/23 04:16:03;;;;;;;11.33;9.20;;;;;;;20.80;96.63;94387.53;4917393;29;20448;-81
2022/08/23 04:18:31;;;;;;;13.47;9.80;;;;;;;20.69;96.69;94391.63;4917257;29;20805;-81
2022/08/23 04:20:59;;;;;;;11.23;9.97;;;;;;;20.57;97.78;94383.44;4917022;29;21025;-81
2022/08/23 04:23:27;;;;;;;12.40;9.80;;;;;;;20.38;98.55;94387.66;4917239;29;20531;-81
2022/08/23 04:25:54;;;;;;;11.23;8.93;;;;;;;20.37;98.76;94380.69;4852923;29;20433;-81
2022/08/23 04:28:21;;;;;;;9.47;8.13;;;;;;;20.37;98.92;94385.22;4917217;29;20454;-81
2022/08/23 04:30:50;;;;;;;10.50;8.70;;;;;;;20.37;99.47;94382.53;4916377;29;20460;-80
2022/08/23 04:33:18;;;;;;;9.37;8.47;;;;;;;20.42;99.60;94383.59;4916903;29;20448;-82
2022/08/23 04:35:45;;;;;;;9.07;8.17;;;;;;;20.29;99.24;94391.56;4916834;29;20484;-81
2022/08/23 04:38:12;;;;;;;9.80;7.30;;;;;;;20.21;99.02;94397.03;4916851;29;20459;-81
2022/08/23 04:43:24;;;;;;;8.10;7.03;;;;;;;20.17;98.34;94397.66;4916791;29;20443;-80
2022/08/23 04:45:52;;;;;;;8.83;7.93;;;;;;;20.19;99.09;94406.25;4915096;29;20478;-82
2022/08/23 04:48:19;;;;;;;8.67;6.63;;;;;;;20.32;99.39;94408.97;4899014;29;20803;-81
2022/08/23 04:50:45;;;;;;;7.57;6.77;;;;;;;20.40;97.99;94401.66;4916637;29;20935;-82
2022/08/23 04:53:12;;;;;;;7.07;6.47;;;;;;;20.45;96.07;94410.88;4917261;29;20459;-81
2022/08/23 04:55:39;;;;;;;9.20;6.90;;;;;;;20.47;95.87;94416.81;4917017;29;20487;-82
2022/08/23 04:58:07;;;;;;;7.63;6.90;;;;;;;20.58;96.50;94419.72;4916789;29;20538;-82
2022/08/23 05:00:33;;;;;;;6.53;5.87;;;;;;;20.66;94.74;94426.72;4917001;29;21009;-83
2022/08/23 05:03:01;;;;;;;8.67;7.07;;;;;;;20.77;94.11;94430.59;4911142;29;20468;-83
2022/08/23 05:05:28;;;;;;;8.93;6.80;;;;;;;20.83;93.54;94435.16;4905549;29;20512;-82
2022/08/23 05:07:55;;;;;;;8.90;7.07;;;;;;;20.92;94.09;94439.25;4916566;29;20460;-80
2022/08/23 05:10:22;;;;;;;15.03;7.80;;;;;;;21.00;93.83;94425.69;4934042;29;20440;-82
2022/08/23 05:12:49;;;;;;;15.13;6.50;;;;;;;21.09;93.37;94432.47;4902468;29;20503;-79
2022/08/23 05:15:16;;;;;;;9.07;7.07;;;;;;;21.21;93.15;94435.34;4920262;29;20456;-80
2022/08/23 05:17:42;;;;;;;8.47;6.80;;;;;;;21.31;92.71;94441.94;4920155;29;20451;-81
2022/08/23 05:20:11;;;;;;;10.33;7.60;;;;;;;21.52;93.32;94453.41;4919322;29;20833;-80
2022/08/23 05:22:40;;;;;;;7.63;6.80;;;;;;;21.81;92.25;94450.28;4901217;29;20457;-80
2022/08/23 05:25:08;;;;;;;10.40;7.00;;;;;;;22.13;89.95;94445.06;4919294;29;20460;-80
2022/08/23 05:27:35;;;;;;;7.70;6.93;;;;;;;22.36;88.22;94452.56;4917812;29;20474;-81
2022/08/23 05:30:03;;;;;;;9.47;6.70;;;;;;;22.54;87.87;94448.13;4917826;29;20551;-81
2022/08/23 05:32:30;;;;;;;9.40;7.40;;;;;;;22.88;86.07;94450.66;4918451;29;20473;-81
2022/08/23 05:34:56;;;;;;;9.00;6.60;;;;;;;23.26;84.84;94459.41;4918772;29;20444;-81
2022/08/23 05:37:24;;;;;;;6.07;5.53;;;;;;;23.57;81.09;94449.69;4906111;29;20943;-80
2022/08/23 05:39:51;;;;;;;10.40;7.90;;;;;;;23.79;79.78;94456.28;4918678;29;20483;-80
2022/08/23 05:42:18;;;;;;;10.40;6.20;;;;;;;23.87;78.42;94455.16;4918903;29;20459;-81
2022/08/23 05:44:45;;;;;;;7.67;6.33;;;;;;;23.86;78.49;94457.03;4919711;29;20460;-81
2022/08/23 05:47:14;;;;;;;5.90;5.30;;;;;;;23.94;77.65;94458.59;4901348;29;20467;-80
2022/08/23 05:49:41;;;;;;;7.50;6.47;;;;;;;23.93;77.76;94471.16;4919023;29;20480;-81
2022/08/23 05:52:11;;;;;;;7.10;5.90;;;;;;;24.23;77.71;94465.06;4885293;29;20958;-81
2022/08/23 05:54:40;;;;;;;7.10;6.50;;;;;;;24.54;75.72;94478.31;4918843;29;20575;-80
2022/08/23 05:57:09;;;;;;;7.93;7.10;;;;;;;24.89;75.22;94475.00;4918860;29;20543;-81
2022/08/23 05:59:36;;;;;;;8.17;6.77;;;;;;;25.18;73.04;94479.53;4918643;29;20452;-81
2022/08/23 06:02:03;;;;;;;8.63;7.17;;;;;;;25.42;72.80;94460.75;4919117;29;20480;-81
2022/08/23 06:04:30;;;;;;;13.63;9.40;;;;;;;25.38;71.53;94467.63;4918617;29;20460;-81
2022/08/23 06:06:57;;;;;;;10.53;8.33;;;;;;;25.46;71.58;94467.31;4885221;29;20459;-80
2022/08/23 06:09:25;;;;;;;11.83;7.77;;;;;;;25.49;70.70;94470.38;4918568;29;20810;-80
2022/08/23 06:11:53;;;;;;;13.70;7.70;;;;;;;25.72;71.25;94477.63;4918529;29;20460;-80
2022/08/23 06:14:20;;;;;;;8.03;6.87;;;;;;;26.00;69.62;94479.59;4918746;29;20539;-81
2022/08/23 06:16:48;;;;;;;11.93;7.60;;;;;;;26.23;68.90;94486.84;4918637;29;20456;-81
2022/08/23 06:19:16;;;;;;;10.10;7.80;;;;;;;26.48;67.87;94481.19;4918239;29;20466;-80
2022/08/23 06:21:43;;;;;;;10.80;7.97;;;;;;;26.59;66.71;94495.66;4917568;29;20611;-80
2022/08/23 06:24:11;;;;;;;9.40;8.40;;;;;;;26.81;66.80;94486.69;4918248;29;20463;-80
2022/08/23 06:26:43;;;;;;;10.43;7.90;;;;;;;26.81;65.28;94489.38;4918179;29;20444;-81
2022/08/23 06:29:14;;;;;;;8.40;7.33;;;;;;;26.63;65.53;94491.47;4918311;29;20475;-80
2022/08/23 06:31:47;;;;;;;8.27;6.90;;;;;;;26.89;64.95;94496.28;4918080;29;20503;-82
2022/08/23 06:34:20;;;;;;;6.87;6.20;;;;;;;26.82;64.64;94499.09;4918245;29;20452;-81
2022/08/23 06:36:48;;;;;;;7.17;6.10;;;;;;;26.85;65.06;94501.31;4918057;29;20463;-80
2022/08/23 06:39:17;;;;;;;9.53;6.73;;;;;;;26.63;65.93;94494.16;4917962;29;20858;-80
2022/08/23 06:41:44;;;;;;;8.47;6.70;;;;;;;26.79;64.47;94502.28;4917799;29;20845;-80
2022/08/23 06:44:13;;;;;;;9.53;6.87;;;;;;;26.92;64.38;94505.75;4884501;29;20863;-80
2022/08/23 06:46:39;;;;;;;8.00;6.00;;;;;;;27.00;64.25;94503.53;4917848;29;20452;-80
2022/08/23 06:49:08;;;;;;;6.60;5.90;;;;;;;27.25;63.92;94503.16;4917872;29;20468;-80
2022/08/23 06:51:36;;;;;;;7.93;6.30;;;;;;;27.28;61.80;94507.25;4917884;29;20448;-80
2022/08/23 06:54:06;;;;;;;7.20;6.50;;;;;;;27.31;62.76;94504.88;4917881;29;20448;-81
2022/08/23 06:56:34;;;;;;;13.13;5.77;;;;;;;27.36;61.53;94510.34;4917755;29;20483;-80
2022/08/23 06:59:03;;;;;;;7.93;5.90;;;;;;;27.24;61.21;94506.94;4917342;29;20508;-80
2022/08/23 07:01:36;;;;;;;6.70;5.80;;;;;;;27.16;62.96;94520.75;4917478;29;20510;-80
2022/08/23 07:04:06;;;;;;;10.13;7.80;;;;;;;27.03;62.89;94524.59;4917370;29;20958;-80
2022/08/23 07:06:33;;;;;;;8.33;7.63;;;;;;;27.09;62.08;94518.22;4917818;29;20448;-80
2022/08/23 07:09:00;;;;;;;7.50;6.83;;;;;;;27.17;61.54;94511.63;4917607;29;20467;-80
2022/08/23 07:11:30;;;;;;;12.43;7.80;;;;;;;27.21;62.21;94511.97;4917729;29;20475;-80
2022/08/23 07:13:57;;;;;;;8.80;6.60;;;;;;;27.05;61.94;94511.69;4917304;29;20462;-80
2022/08/23 07:16:25;;;;;;;8.63;7.43;;;;;;;27.11;62.99;94505.34;4917133;29;20558;-80
2022/08/23 07:18:54;;;;;;;7.13;6.40;;;;;;;27.27;61.49;94500.22;4916989;29;20911;-80
2022/08/23 07:21:21;;;;;;;13.30;7.70;;;;;;;27.34;62.32;94506.28;4899365;29;20998;-80
2022/08/23 07:23:48;;;;;;;8.33;7.53;;;;;;;27.42;61.49;94506.69;4899181;29;20488;-80
2022/08/23 07:26:17;;;;;;;8.47;7.63;;;;;;;27.46;61.64;94510.53;4917184;29;20507;-80
2022/08/23 07:28:44;;;;;;;9.93;7.13;;;;;;;27.63;63.02;94505.19;4917230;29;20547;-80
2022/08/23 07:31:14;;;;;;;10.90;9.17;;;;;;;27.60;62.67;94507.53;4898962;29;20456;-80
2022/08/23 07:33:42;;;;;;;13.40;8.47;;;;;;;27.45;61.90;94502.69;4899420;29;20527;-80
2022/08/23 07:36:13;;;;;;;9.53;7.60;;;;;;;27.27;62.45;94503.75;4917126;29;20444;-80
2022/08/23 07:38:40;;;;;;;7.97;7.17;;;;;;;26.73;63.37;94508.63;4917062;29;20503;-80
2022/08/23 07:41:07;;;;;;;11.40;8.40;;;;;;;26.48;64.96;94508.94;4916739;29;20483;-80
2022/08/23 07:43:34;;;;;;;12.87;11.10;;;;;;;26.13;66.78;94505.44;4916843;29;20448;-80
2022/08/23 07:46:02;;;;;;;9.70;8.73;;;;;;;25.80;67.79;94512.25;4916775;29;20866;-80
2022/08/23 07:48:29;;;;;;;13.23;8.30;;;;;;;25.54;68.85;94504.59;4916946;29;20460;-80
2022/08/23 07:51:00;;;;;;;12.20;9.03;;;;;;;25.42;69.06;94501.06;4883691;29;20829;-80
2022/08/23 07:53:28;;;;;;;10.20;9.10;;;;;;;25.32;69.09;94510.50;4916822;29;20502;-80
2022/08/23 07:55:56;;;;;;;11.77;9.90;;;;;;;25.31;69.62;94511.56;4916447;29;20484;-80
2022/08/23 07:58:25;;;;;;;19.17;10.83;;;;;;;25.27;71.72;94510.38;4916877;29;20448;-80
2022/08/23 08:00:53;;;;;;;25.47;13.00;;;;;;;25.19;72.40;94513.41;4916596;29;20518;-80
2022/08/23 08:03:20;;;;;;;16.87;11.73;;;;;;;25.10;72.91;94514.75;4916409;29;20452;-80
2022/08/23 08:05:47;;;;;;;21.87;13.00;;;;;;;24.91;73.88;94518.53;4899190;29;20459;-80
2022/08/23 08:08:13;;;;;;;15.27;11.57;;;;;;;24.74;74.44;94517.50;4916527;29;20475;-80
2022/08/23 08:10:42;;;;;;;13.73;11.20;;;;;;;24.67;75.31;94525.66;4916434;29;20452;-80
2022/08/23 08:13:10;;;;;;;15.07;12.00;;;;;;;24.56;74.53;94526.38;4916596;29;20463;-80
2022/08/23 08:15:41;;;;;;;22.53;13.73;;;;;;;24.55;75.82;94528.25;4916583;29;20545;-80
2022/08/23 08:18:07;;;;;;;16.17;13.07;;;;;;;24.42;76.77;94523.06;4916327;29;20944;-80
2022/08/23 08:20:35;;;;;;;14.90;11.87;;;;;;;24.45;76.89;94530.66;4916356;29;20490;-80
2022/08/23 08:23:03;;;;;;;19.00;13.00;;;;;;;24.42;75.31;94536.47;4916273;29;20504;-80
2022/08/23 08:25:33;;;;;;;15.87;13.77;;;;;;;24.33;76.46;94532.47;4916206;29;20535;-80
2022/08/23 08:28:01;;;;;;;17.13;14.23;;;;;;;24.37;76.68;94531.78;4916494;29;20460;-80
2022/08/23 08:30:28;;;;;;;17.23;13.47;;;;;;;24.46;77.16;94531.47;4916650;29;20951;-80
2022/08/23 08:32:55;;;;;;;15.90;13.17;;;;;;;24.51;76.46;94521.69;4916407;29;20455;-80
2022/08/23 08:35:22;;;;;;;22.07;12.63;;;;;;;24.69;76.72;94527.06;4916089;29;20458;-80
2022/08/23 08:37:48;;;;;;;17.83;13.53;;;;;;;25.12;75.00;94530.63;4916192;29;20448;-80
2022/08/23 08:40:25;;;;;;;15.30;12.10;;;;;;;25.44;73.41;94534.69;4916362;29;20463;-80
2022/08/23 08:43:07;;;;;;;21.07;12.50;;;;;;;25.56;71.80;94532.03;4916332;29;20629;-80
2022/08/23 08:45:58;;;;;;;14.53;12.43;;;;;;;25.64;72.15;94531.69;4920229;29;20538;-81
2022/08/23 08:48:28;;;;;;;15.70;12.40;;;;;;;25.69;71.57;94526.47;4919824;29;20459;-80
2022/08/23 08:50:57;;;;;;;13.50;10.67;;;;;;;25.74;72.08;94526.63;4918747;29;20887;-80
2022/08/23 08:53:29;;;;;;;17.03;12.73;;;;;;;25.85;72.19;94522.28;4919920;29;20455;-80
2022/08/23 08:55:59;;;;;;;14.97;12.70;;;;;;;25.95;72.73;94522.50;4901838;29;20567;-80
2022/08/23 08:58:38;;;;;;;16.03;11.37;;;;;;;25.85;68.06;94523.09;4920167;29;20451;-80
2022/08/23 09:01:05;;;;;;;13.87;12.33;;;;;;;25.77;67.89;94511.91;4919839;29;20918;-80
2022/08/23 09:03:34;;;;;;;20.40;13.73;;;;;;;25.73;68.14;94508.81;4902416;29;20499;-80
2022/08/23 09:06:06;;;;;;;12.17;10.23;;;;;;;25.68;69.07;94506.03;4919904;29;20499;-80
2022/08/23 09:08:45;;;;;;;18.50;10.83;;;;;;;25.71;68.60;94496.66;4919800;29;20448;-81
2022/08/23 09:11:22;;;;;;;12.10;9.37;;;;;;;25.82;68.75;94496.69;4919284;29;20510;-80
2022/08/23 09:14:11;;;;;;;10.47;9.47;;;;;;;26.06;67.86;94502.88;4919688;29;20549;-80
2022/08/23 09:16:50;;;;;;;12.73;11.10;;;;;;;26.36;67.53;94500.06;4919378;29;20453;-80
2022/08/23 09:19:17;;;;;;;14.70;12.07;;;;;;;26.48;67.81;94498.16;4919425;29;20451;-80
2022/08/23 09:21:47;;;;;;;18.43;12.90;;;;;;;26.54;66.83;94499.91;4919297;29;20487;-81
2022/08/23 09:24:14;;;;;;;15.63;13.07;;;;;;;26.66;66.60;94501.75;4919219;29;20457;-80
2022/08/23 09:26:41;;;;;;;18.47;12.53;;;;;;;26.99;65.44;94498.38;4919308;29;20839;-80
2022/08/23 09:29:20;;;;;;;16.50;13.50;;;;;;;27.12;65.34;94498.06;4919295;29;21003;-80
2022/08/23 09:31:51;;;;;;;17.07;10.77;;;;;;;27.19;65.23;94501.44;4919032;29;20506;-80
2022/08/23 09:34:21;;;;;;;15.40;12.03;;;;;;;27.34;64.30;94492.81;4919113;29;20467;-80
2022/08/23 09:36:48;;;;;;;16.33;11.53;;;;;;;27.37;64.42;94497.69;4919507;29;20447;-80
2022/08/23 09:39:29;;;;;;;14.17;12.37;;;;;;;27.35;63.73;94497.13;4918914;29;20464;-81
2022/08/23 09:41:56;;;;;;;16.43;12.50;;;;;;;27.27;62.92;94501.03;4919004;29;20486;-80
2022/08/23 09:44:36;;;;;;;14.33;11.07;;;;;;;27.37;63.96;94500.41;4919453;29;20455;-80
2022/08/23 09:47:11;;;;;;;13.23;11.90;;;;;;;27.39;63.13;94498.28;4919096;29;20958;-80
2022/08/23 09:49:40;;;;;;;13.47;11.80;;;;;;;27.49;62.25;94501.16;4919052;29;20456;-80
2022/08/23 09:52:14;;;;;;;12.93;10.70;;;;;;;27.64;61.44;94506.00;4919129;29;20457;-80
2022/08/23 09:54:42;;;;;;;17.13;12.17;;;;;;;27.50;62.34;94502.78;4918477;29;20479;-80
2022/08/23 09:57:12;;;;;;;12.77;11.30;;;;;;;27.49;62.16;94508.44;4918598;29;21007;-80
2022/08/23 09:59:43;;;;;;;12.30;11.10;;;;;;;27.35;61.47;94502.53;4918923;29;20444;-80
2022/08/23 10:02:23;;;;;;;13.20;11.87;;;;;;;27.23;63.79;94493.69;4918492;29;20591;-80
2022/08/23 10:04:58;;;;;;;12.00;10.53;;;;;;;27.06;63.17;94490.97;4918606;29;20531;-80
2022/08/23 10:07:28;;;;;;;16.27;12.13;;;;;;;27.00;63.33;94508.91;4918757;29;20462;-80
2022/08/23 10:10:14;;;;;;;12.50;11.20;;;;;;;26.85;64.67;94489.72;4918880;29;20459;-80
2022/08/23 10:12:40;;;;;;;12.47;11.27;;;;;;;26.79;63.84;94496.06;4918387;29;20452;-80
2022/08/23 10:15:10;;;;;;;12.70;10.80;;;;;;;26.57;65.30;94500.47;4918746;29;20459;-80
2022/08/23 10:17:45;;;;;;;11.20;10.10;;;;;;;26.66;65.80;94504.44;4884992;29;20978;-80
2022/08/23 10:20:22;;;;;;;14.90;11.97;;;;;;;26.76;66.02;94501.94;4918382;29;20468;-80
2022/08/23 10:22:55;;;;;;;17.50;11.40;;;;;;;26.94;66.08;94496.38;4918408;29;20543;-80
2022/08/23 10:25:30;;;;;;;16.27;11.50;;;;;;;27.10;63.85;94484.03;4918435;29;20547;-80
2022/08/23 10:30:59;;;;;;;12.03;10.83;;;;;;;27.17;62.87;94488.19;4918435;29;20423;-80
2022/08/23 10:33:36;;;;;;;11.43;10.03;;;;;;;27.30;62.27;94475.50;4918290;29;20526;-80
2022/08/23 10:36:13;;;;;;;14.67;10.97;;;;;;;27.35;61.39;94478.25;4918061;29;20443;-80
2022/08/23 10:38:45;;;;;;;18.63;10.67;;;;;;;27.49;60.96;94471.50;4900321;29;20451;-80
2022/08/23 10:41:37;;;;;;;12.03;10.80;;;;;;;27.49;62.22;94476.09;4918190;29;20448;-80
2022/08/23 10:44:28;;;;;;;16.17;9.70;;;;;;;27.42;61.96;94471.66;4918024;29;20459;-79
2022/08/23 10:47:10;;;;;;;21.30;12.10;;;;;;;27.25;60.56;94470.84;4918050;29;20459;-80
2022/08/23 10:49:40;;;;;;;11.20;10.07;;;;;;;27.27;60.68;94471.41;4918207;29;20452;-80
2022/08/23 10:52:20;;;;;;;12.83;9.90;;;;;;;27.36;60.74;94469.13;4917925;29;20555;-80
2022/08/23 10:54:59;;;;;;;10.67;9.50;;;;;;;27.37;61.18;94470.75;4917689;29;20491;-80
2022/08/23 10:57:33;;;;;;;13.23;11.00;;;;;;;27.41;60.57;94466.50;4918107;29;20875;-80
2022/08/23 11:00:02;;;;;;;10.70;9.70;;;;;;;27.49;62.49;94471.50;4917601;29;20456;-80
2022/08/23 11:02:40;;;;;;;11.97;10.37;;;;;;;27.54;58.73;94473.47;4917659;29;20491;-79
2022/08/23 11:05:17;;;;;;;11.37;9.80;;;;;;;27.60;57.86;94475.16;4917495;29;20448;-80
2022/08/23 11:07:57;;;;;;;13.27;8.57;;;;;;;27.65;58.79;94476.09;4916915;29;20451;-80
2022/08/23 11:10:29;;;;;;;9.63;8.73;;;;;;;27.59;59.03;94474.34;4917355;29;20940;-80
2022/08/23 11:13:00;;;;;;;14.00;9.83;;;;;;;27.19;58.83;94479.91;4917748;29;20457;-80
2022/08/23 11:15:37;;;;;;;12.27;10.30;;;;;;;27.26;59.78;94468.97;4917467;29;20456;-80
2022/08/23 11:18:07;;;;;;;15.90;10.13;;;;;;;27.45;59.86;94470.34;4917156;29;20519;-80
2022/08/23 11:20:59;;;;;;;17.47;10.07;;;;;;;27.56;61.01;94460.56;4917285;29;20479;-80
2022/08/23 11:23:40;;;;;;;11.90;9.07;;;;;;;27.46;58.85;94467.41;4917295;29;20555;-81
2022/08/23 11:26:10;;;;;;;10.90;9.57;;;;;;;27.59;59.36;94466.28;4917291;29;20474;-80
2022/08/23 11:28:43;;;;;;;9.50;8.43;;;;;;;27.73;58.52;94466.78;4917138;29;20478;-80
2022/08/23 11:31:21;;;;;;;13.93;10.07;;;;;;;27.85;58.47;94472.09;4916995;29;20456;-80
2022/08/23 11:33:58;;;;;;;9.67;8.20;;;;;;;27.80;58.47;94466.63;4917052;29;20451;-80
2022/08/23 11:36:27;;;;;;;10.03;9.03;;;;;;;27.60;59.65;94464.38;4916872;29;20469;-80
2022/08/23 11:39:10;;;;;;;13.47;9.40;;;;;;;27.54;57.59;94460.81;4917417;29;20480;-80
2022/08/23 11:42:02;;;;;;;9.77;8.87;;;;;;;27.39;59.63;94452.47;4917217;29;20510;-80
2022/08/23 11:44:37;;;;;;;10.10;8.50;;;;;;;27.31;59.89;94458.25;4916633;29;20456;-80
2022/08/23 11:47:06;;;;;;;14.93;9.30;;;;;;;27.38;60.66;94448.13;4883493;29;20436;-80
2022/08/23 11:50:06;;;;;;;11.90;8.90;;;;;;;27.60;59.71;94446.34;4914543;29;20480;-79